• Join FlightAware (Why Join?)
  • Login
  • US Flag 
11:21PM EDT


 

Airport Tracker/Info


-or-


 

Live Flight TrackerFlight Track Log ✈ UAL4257 ✈ 30-Sep-2013 ✈ MMMY / MTY - KIAH

Flight Track Log - Related Links

Times and Time Zones

All times are in EDT time to prevent confusion due to time zone crossing. See the UAL4257 flight status page for this flight to view local times or setup timezone preferences in your user account.

Time Position Orientation Groundspeed Altitude Reporting Facility
EDT Latitude Longitude Course Direction KTS MPH feet Rate Location/Type
12:59PM 25.8892 -100.1167 53° Northeast 188 216 7,400  Level Houston Center
01:00PM 26.0075 -99.8610 49° Northeast  Level Estimated
01:00PM 25.9150 -100.0372 70° East 255 293 9,100  Level Houston Center
01:01PM 26.0647 -99.7993 47° Northeast  Level Estimated
01:01PM 25.9464 -99.9542 67° East 270 311 10,700  Level Houston Center
01:02PM 26.1117 -99.6988 62° Northeast  Level FlightAware Approximate
01:02PM 25.9856 -99.8736 62° Northeast 285 328 12,100  Level Houston Center
01:03PM 26.1852 -99.6202 47° Northeast  Level Estimated
01:03PM 26.0292 -99.7586 67° East 312 359 13,800  Level Houston Center
01:04PM 26.2463 -99.5294 53° Northeast  Level FlightAware Approximate
01:04PM 26.0678 -99.6622 66° East 327 376 15,100  Level Houston Center
01:05PM 26.1317 -99.5828 48° Northeast 340 391 16,600 1,320 Climbing Houston Center
01:06PM 26.1983 -99.5053 46° Northeast 344 396 17,900 1,200 Climbing Houston Center
01:07PM 26.2650 -99.4250 47° Northeast 348 400 19,100 1,140 Climbing Houston Center
01:08PM 26.3325 -99.3450 47° Northeast 352 405 20,300 1,200 Climbing Houston Center
01:09PM 26.4156 -99.2467 47° Northeast 358 412 21,700 1,200 Climbing Houston Center
01:10PM 26.4856 -99.1631 47° Northeast 363 418 22,800 960 Climbing Houston Center
01:11PM 26.5589 -99.0761 47° Northeast 375 432 23,800 960 Climbing Houston Center
01:12PM 26.6322 -98.9878 47° Northeast 384 442 24,800 960 Climbing Houston Center
01:13PM 26.7061 -98.8994 47° Northeast 389 448 25,800 960 Climbing Houston Center
01:14PM 26.7967 -98.7917 47° Northeast 396 456 26,800 900 Climbing Houston Center
01:15PM 26.8739 -98.6989 47° Northeast 407 468 27,700 780 Climbing Houston Center
01:16PM 26.9522 -98.6053 47° Northeast 412 474 28,500 600 Climbing Houston Center
01:17PM 27.0306 -98.5103 47° Northeast 416 479 29,000 240 Climbing Houston Center
01:18PM 27.1125 -98.4100 47° Northeast 432 497 29,000  Level Houston Center
01:19PM 27.2161 -98.2864 47° Northeast 449 517 29,000  Level Houston Center
01:20PM 27.3033 -98.1778 48° Northeast 464 534 29,000  Level Houston Center
01:21PM 27.3928 -98.0689 47° Northeast 472 543 29,000  Level Houston Center
01:23PM 27.4825 -97.9597 47° Northeast 476 548 29,000  Level Houston Center
01:24PM 27.5717 -97.8517 47° Northeast 473 544 29,000  Level Houston Center
01:25PM 27.6614 -97.7422 47° Northeast 475 547 29,000  Level Houston Center
01:26PM 27.7683 -97.6106 47° Northeast 476 548 29,000  Level Houston Center
01:27PM 27.8569 -97.5000 48° Northeast 475 547 29,000  Level Houston Center
01:28PM 27.9625 -97.3992 40° Northeast 470 541 29,000  Level Houston Center
01:29PM 28.0675 -97.3189 34° Northeast 459 528 29,000  Level Houston Center
01:30PM 28.1714 -97.2394 34° Northeast 452 520 29,000  Level Houston Center
01:31PM 28.2747 -97.1603 34° Northeast 449 517 29,000 -60 Level Houston Center
01:32PM 28.3931 -97.1358 10° North 433 498 28,900  Descending Houston Center
01:33PM 28.5386 -97.1278 North 435 501 29,000  Climbing Houston Center
01:34PM 28.6608 -97.1011 11° North 460 529 29,000 -300 Level Houston Center
01:35PM 28.7594 -97.0075 40° Northeast 467 537 28,400 -1,080 Descending Houston Center
01:36PM 28.8544 -96.9069 43° Northeast 470 541 26,800 -2,280 Descending Houston Center
01:37PM 28.9469 -96.8086 43° Northeast 461 531 23,800 -3,000 Descending Houston Center
01:38PM 29.0350 -96.7153 43° Northeast 441 507 20,700 -3,060 Descending Houston Center
01:39PM 29.1344 -96.6108 43° Northeast 412 474 17,500 -2,940 Descending Houston Center
01:40PM 29.1803 -96.5614 43° Northeast 381 438 15,800 -2,340 Descending Houston Center
01:40PM 29.2103 -96.5294 43° Northeast 382 440 15,100 -1,920 Descending Houston Center
01:41PM 29.2828 -96.4506 43° Northeast 368 423 13,100 -2,100 Descending Houston Center
01:41PM 29.2917 -96.4392 48° Northeast 359 413 12,900 -1,500 Descending Houston Center
01:42PM 29.3542 -96.3733 43° Northeast 358 412 11,600 -1,380 Descending Houston Center
01:43PM 29.4361 -96.2867 43° Northeast 357 411 10,200 -1,260 Descending Houston Center
01:43PM 29.4261 -96.2961 219° Southwest 357 411 10,300 -240 Climbing Houston Center
01:44PM 29.5100 -96.2067 43° Northeast 347 399 10,000 -300 Descending Houston Center
01:44PM 29.5150 -96.2014 43° Northeast 341 392 10,000  Level Houston Center
01:45PM 29.5683 -96.1222 52° Northeast 343 395 10,000  Level Houston Center
01:45PM 29.5703 -96.1133 76° East 339 390 10,000  Level Houston Center
01:46PM 29.6158 -96.0267 59° Northeast 345 397 10,000  Level Houston Center
01:46PM 29.6208 -96.0189 54° Northeast 339 390 10,000 -1,260 Level Houston Center
01:47PM 29.6728 -95.9442 51° Northeast 301 346 8,700 -1,380 Descending Houston Center
01:47PM 29.6772 -95.9428 15° North 283 326 8,600 -1,200 Descending Houston Center
01:48PM 29.7433 -95.9047 27° Northeast 281 323 7,500 -1,200 Descending Houston Center
01:48PM 29.7472 -95.9036 14° North 277 319 7,400 -540 Descending Houston Center
01:49PM 29.8128 -95.8661 26° Northeast 277 319 7,000 -420 Descending Houston Center
01:49PM 29.8153 -95.8644 30° Northeast 273 314 7,000  Level Houston Center
01:50PM 29.8797 -95.8478 13° North 249 287 7,000  Level Houston Center
01:51PM 29.9481 -95.8392 North 245 282 7,000  Level Houston Center
01:52PM 29.9600 -95.8381 North 244 281 7,000  Level Houston Center
01:52PM 30.0108 -95.8169 20° North 247 284 7,000  Level Houston Center
01:53PM 30.0067 -95.7433 94° East 233 268 7,100 -600 Climbing Houston Center
01:55PM 29.9883 -95.6569 104° East 231 266 5,800 -1,560 Descending Houston Center
01:56PM 29.9944 -95.5853 84° East 227 261 3,900 -1,860 Descending Houston Center
01:56PM 29.9919 -95.5836 150° Southeast 188 216 3,900 -900 Level Houston Center
01:57PM 29.9931 -95.5250 89° East 203 234 3,000 -1,020 Descending Houston Center
01:57PM 29.9928 -95.5231 99° East 187 215 2,900 -900 Descending Houston Center
01:58PM 29.9919 -95.4678 91° East 185 213 2,200 -840 Descending Houston Center
01:58PM 29.9947 -95.4650 41° Northeast 194 223 2,100 -840 Descending Houston Center
01:59PM 29.9939 -95.4192 91° East 139 160 1,400 -720 Descending Houston Center
01:59PM 29.9939 -95.4183 90° East 170 196 1,400 -900 Level Houston Center
02:00PM 29.9936 -95.3711 90° East 137 158 500 -900 Descending Houston Center
02:00PM 29.9933 -95.3739 263° West 151 174 500 -180 Level Houston Center
02:01PM 29.9944 -95.3272 88° East 150 173 300 -240 Descending Houston Center